Brinkley, Arkansas
Current Conditions -  °F | °C
As of 5:35 AM on Wednesday 26 Nov 2014 (Local Time) from KSGT Reporting Station
Clear Clear  
Wind Chill: 31°   Ceiling: Unl
Heat Index: 36°   Visibility: 7mi
Dew Point: 30°   Wind: 6mph
Humidity: 81%   Direction: 140°SE
Pressure: 30.11"   Gusts: NA
Location:  34.89°N, 91.19°W
Report Text: KSGT 261135Z AUTO 14005KT 7SM CLR 02/M01 A3011 RMK AO1
Loading
Personal Weather Stations






























Interactive Weather Map New forecast layout! Learn more

10-Day Weather Forecast

Advertisements
Track Severe Weather on mobile